Time;durP1;ratioP1;P1;durP2;ratioP2;P2;SDS_P1;SDS_P2;PMS_P1;PMS_P2;Temp;Humidity;BMP_temperature;BMP_pressure;BME280_temperature;BME280_humidity;BME280_pressure;Samples;Min_cycle;Max_cycle;Signal;HPM_P1;HPM_P2
2022/05/03 00:02:55;;;;;;;3.40;2.22;;;;;;;;;;4935092;29;20048;-67
2022/05/03 00:05:54;;;;;;;5.50;2.63;;;;;;;;;;4897393;29;20178;-67
2022/05/03 00:08:28;;;;;;;3.40;1.98;;;;;;;;;;4897030;29;20057;-67
2022/05/03 00:11:32;;;;;;;4.93;2.00;;;;;;;;;;4897285;29;20132;-67
2022/05/03 00:14:26;;;;;;;4.25;2.03;;;;;;;;;;4878677;29;20060;-67
2022/05/03 00:16:59;;;;;;;4.35;2.05;;;;;;;;;;4878622;29;20061;-67
2022/05/03 00:19:30;;;;;;;3.38;2.00;;;;;;;;;;4862888;29;20053;-68
2022/05/03 00:22:01;;;;;;;3.70;1.77;;;;;;;;;;4896955;29;20056;-69
2022/05/03 00:24:33;;;;;;;4.03;1.70;;;;;;;;;;4897153;29;20065;-68
2022/05/03 00:27:04;;;;;;;4.60;1.50;;;;;;;;;;4866169;29;20421;-70
2022/05/03 00:29:36;;;;;;;3.88;1.77;;;;;;;;;;4864904;29;20057;-68
2022/05/03 00:32:08;;;;;;;3.13;1.83;;;;;;;;;;4900553;29;20071;-71
2022/05/03 00:34:39;;;;;;;9.25;4.53;;;;;;;;;;4884456;29;20064;-73
2022/05/03 00:37:09;;;;;;;3.25;2.15;;;;;;;;;;4885314;29;20052;-74
2022/05/03 00:39:41;;;;;;;3.95;2.35;;;;;;;;;;4929686;29;20451;-75
2022/05/03 00:42:22;;;;;;;5.38;2.20;;;;;;;;;;4947244;28;20054;-75
2022/05/03 00:45:25;;;;;;;5.93;2.13;;;;;;;;;;4973463;28;20058;-73
2022/05/03 00:48:01;;;;;;;3.03;1.40;;;;;;;;;;4938294;29;20062;-72
2022/05/03 00:50:45;;;;;;;4.65;2.65;;;;;;;;;;4923487;28;20049;-72
2022/05/03 00:53:25;;;;;;;5.65;2.40;;;;;;;;;;5031798;28;20056;-71
2022/05/03 00:56:04;;;;;;;3.90;2.25;;;;;;;;;;5032292;28;20535;-71
2022/05/03 00:58:48;;;;;;;5.50;2.00;;;;;;;;;;5031423;28;20057;-70
2022/05/03 01:01:48;;;;;;;2.92;1.65;;;;;;;;;;5031898;28;20049;-71
2022/05/03 01:04:25;;;;;;;6.53;1.40;;;;;;;;;;5031757;28;20386;-72
2022/05/03 01:07:16;;;;;;;14.90;2.20;;;;;;;;;;4999474;28;20049;-71
2022/05/03 01:10:21;;;;;;;3.08;1.55;;;;;;;;;;5031700;28;20049;-68
2022/05/03 01:13:03;;;;;;;3.55;1.92;;;;;;;;;;4972771;28;20491;-72
2022/05/03 01:15:39;;;;;;;3.25;1.85;;;;;;;;;;4972680;28;20094;-73
2022/05/03 01:18:37;;;;;;;3.33;1.92;;;;;;;;;;4925026;28;20058;-69
2022/05/03 01:21:19;;;;;;;3.33;1.33;;;;;;;;;;4972663;28;20050;-68
2022/05/03 01:24:10;;;;;;;4.45;2.47;;;;;;;;;;4977643;28;20061;-72
2022/05/03 01:27:07;;;;;;;3.97;2.08;;;;;;;;;;4959999;28;20057;-70
2022/05/03 01:29:40;;;;;;;4.25;1.75;;;;;;;;;;4991833;28;20054;-70
2022/05/03 01:32:13;;;;;;;4.50;1.70;;;;;;;;;;4991880;28;20050;-72
2022/05/03 01:34:46;;;;;;;3.00;1.85;;;;;;;;;;4991938;28;20194;-72
2022/05/03 01:37:39;;;;;;;3.25;1.85;;;;;;;;;;4960476;28;20057;-71
2022/05/03 01:40:56;;;;;;;3.75;1.73;;;;;;;;;;4991736;28;20565;-74
2022/05/03 01:43:53;;;;;;;5.15;2.10;;;;;;;;;;4933674;29;20056;-75
2022/05/03 01:46:27;;;;;;;3.78;2.25;;;;;;;;;;4933670;29;20051;-74
2022/05/03 01:52:19;;;;;;;3.63;1.73;;;;;;;;;;4933673;29;20070;-72
2022/05/03 01:55:04;;;;;;;2.88;1.27;;;;;;;;;;4886636;29;20384;-71
2022/05/03 01:58:11;;;;;;;3.00;1.73;;;;;;;;;;4933273;29;20071;-73
2022/05/03 02:00:46;;;;;;;3.95;1.77;;;;;;;;;;4933217;29;20043;-71
2022/05/03 02:03:45;;;;;;;3.17;1.45;;;;;;;;;;4919252;29;20443;-71
2022/05/03 02:06:23;;;;;;;6.03;2.13;;;;;;;;;;4952334;28;20058;-71
2022/05/03 02:09:05;;;;;;;2.42;1.40;;;;;;;;;;4952697;29;20058;-71
2022/05/03 02:11:36;;;;;;;4.55;1.80;;;;;;;;;;4952619;28;20043;-70
2022/05/03 02:17:14;;;;;;;3.42;1.73;;;;;;;;;;4952505;28;20503;-68
2022/05/03 02:20:22;;;;;;;3.67;1.83;;;;;;;;;;4981738;28;20057;-69
2022/05/03 02:23:35;;;;;;;5.10;2.05;;;;;;;;;;4997350;28;20057;-70
2022/05/03 02:26:48;;;;;;;4.20;1.20;;;;;;;;;;4952032;29;20458;-70
2022/05/03 02:29:41;;;;;;;4.22;2.53;;;;;;;;;;4936022;29;20051;-69
2022/05/03 02:32:16;;;;;;;4.30;2.42;;;;;;;;;;4952160;29;20165;-70
2022/05/03 02:34:58;;;;;;;4.18;2.20;;;;;;;;;;4952074;29;20047;-69
2022/05/03 02:37:50;;;;;;;6.88;2.60;;;;;;;;;;4936262;29;20063;-70
2022/05/03 02:40:26;;;;;;;3.00;1.85;;;;;;;;;;4952099;29;20146;-70
2022/05/03 02:42:57;;;;;;;5.40;2.10;;;;;;;;;;4932460;29;20063;-68
2022/05/03 02:45:34;;;;;;;3.33;2.45;;;;;;;;;;4932819;29;20048;-68
2022/05/03 02:48:18;;;;;;;4.00;2.30;;;;;;;;;;4932722;29;20150;-69
2022/05/03 02:51:02;;;;;;;3.78;2.28;;;;;;;;;;4901122;29;20056;-69
2022/05/03 02:53:52;;;;;;;7.15;2.60;;;;;;;;;;4916864;29;20055;-68
2022/05/03 02:56:37;;;;;;;6.40;2.50;;;;;;;;;;4870068;29;20060;-68
2022/05/03 03:02:54;;;;;;;4.65;1.75;;;;;;;;;;4962214;28;20066;-67
2022/05/03 03:05:28;;;;;;;3.58;1.60;;;;;;;;;;5010035;28;20560;-68
2022/05/03 03:08:04;;;;;;;2.80;1.48;;;;;;;;;;4977322;28;20089;-68
2022/05/03 03:11:00;;;;;;;2.05;1.60;;;;;;;;;;4993561;28;20556;-68
2022/05/03 03:13:39;;;;;;;5.88;1.70;;;;;;;;;;5009900;28;20061;-68
2022/05/03 03:16:13;;;;;;;3.15;1.73;;;;;;;;;;5010133;28;20625;-67
2022/05/03 03:18:47;;;;;;;2.92;2.00;;;;;;;;;;5010925;28;20050;-68
2022/05/03 03:21:21;;;;;;;4.95;1.95;;;;;;;;;;5029311;28;20057;-67
2022/05/03 03:23:54;;;;;;;2.92;2.08;;;;;;;;;;5034022;28;20045;-67
2022/05/03 03:26:26;;;;;;;;;;;;;;;;;;5017895;28;20057;-66
2022/05/03 03:29:02;;;;;;;2.92;1.67;;;;;;;;;;5013712;28;19928;-66
2022/05/03 03:31:34;;;;;;;2.83;1.63;;;;;;;;;;5013626;28;20058;-67
2022/05/03 03:34:06;;;;;;;2.72;1.60;;;;;;;;;;5013571;28;20053;-66
2022/05/03 03:36:37;;;;;;;;;;;;;;;;;;4981596;28;20046;-66
2022/05/03 03:39:08;;;;;;;2.97;1.88;;;;;;;;;;5024816;28;19921;-66
2022/05/03 03:41:38;;;;;;;2.83;1.80;;;;;;;;;;5013115;28;20057;-66
2022/05/03 03:44:09;;;;;;;6.07;1.52;;;;;;;;;;4918777;28;20505;-66
2022/05/03 03:46:40;;;;;;;1.98;1.40;;;;;;;;;;5013439;28;20101;-66
2022/05/03 03:49:11;;;;;;;5.55;1.33;;;;;;;;;;4965026;28;20054;-66
2022/05/03 03:51:41;;;;;;;2.00;1.42;;;;;;;;;;5013310;28;20529;-66
2022/05/03 03:54:13;;;;;;;6.72;2.65;;;;;;;;;;5013278;28;20080;-66
2022/05/03 03:56:46;;;;;;;3.88;1.70;;;;;;;;;;4964503;28;20058;-66
2022/05/03 03:59:18;;;;;;;2.38;1.40;;;;;;;;;;4997048;28;20054;-66
2022/05/03 04:01:49;;;;;;;3.15;1.92;;;;;;;;;;5013087;28;20808;-65
2022/05/03 04:04:26;;;;;;;5.65;2.10;;;;;;;;;;4964845;28;20061;-66
2022/05/03 04:07:00;;;;;;;8.65;2.63;;;;;;;;;;5054060;28;20056;-65
2022/05/03 04:09:31;;;;;;;6.18;3.03;;;;;;;;;;5072799;28;20052;-66
2022/05/03 04:12:04;;;;;;;7.40;2.35;;;;;;;;;;5036094;28;20049;-66
2022/05/03 04:14:35;;;;;;;5.57;2.30;;;;;;;;;;5036468;28;20167;-65
2022/05/03 04:17:05;;;;;;;7.10;2.47;;;;;;;;;;5052518;28;20064;-65
2022/05/03 04:19:36;;;;;;;4.00;1.60;;;;;;;;;;5038191;28;20448;-66
2022/05/03 04:22:30;;;;;;;5.40;1.92;;;;;;;;;;5035827;28;20099;-65
2022/05/03 04:25:04;;;;;;;9.30;2.30;;;;;;;;;;5052465;28;20052;-66
2022/05/03 04:27:34;;;;;;;4.38;2.33;;;;;;;;;;5032109;28;20045;-66
2022/05/03 04:30:06;;;;;;;4.35;1.92;;;;;;;;;;5032133;28;20065;-65
2022/05/03 04:32:36;;;;;;;3.50;2.15;;;;;;;;;;4992830;28;20420;-65
2022/05/03 04:35:07;;;;;;;4.38;3.15;;;;;;;;;;4977460;28;20065;-65
2022/05/03 04:37:38;;;;;;;3.58;2.03;;;;;;;;;;4992759;28;20062;-66
2022/05/03 04:40:09;;;;;;;4.45;2.25;;;;;;;;;;4993016;28;20056;-66
2022/05/03 04:42:46;;;;;;;4.93;2.20;;;;;;;;;;4947990;28;20185;-65
2022/05/03 04:45:17;;;;;;;5.43;2.10;;;;;;;;;;4992834;28;20518;-66
2022/05/03 04:47:48;;;;;;;6.22;2.40;;;;;;;;;;4902913;29;20047;-66
2022/05/03 04:50:18;;;;;;;5.72;2.25;;;;;;;;;;4918505;29;20059;-65
2022/05/03 04:52:51;;;;;;;9.85;2.75;;;;;;;;;;4934652;29;20508;-65
2022/05/03 04:55:23;;;;;;;4.60;2.42;;;;;;;;;;4934696;29;20056;-66
2022/05/03 04:57:56;;;;;;;3.47;1.83;;;;;;;;;;4932723;28;20563;-65
2022/05/03 05:00:34;;;;;;;4.32;2.30;;;;;;;;;;4972853;28;20150;-65
2022/05/03 05:03:05;;;;;;;3.92;2.47;;;;;;;;;;4973011;28;20063;-65
2022/05/03 05:05:35;;;;;;;4.72;1.70;;;;;;;;;;4941106;28;20522;-66
2022/05/03 05:08:07;;;;;;;3.65;2.03;;;;;;;;;;4972997;28;20062;-65
2022/05/03 05:10:38;;;;;;;4.22;3.42;;;;;;;;;;5001079;28;20056;-66
2022/05/03 05:13:09;;;;;;;4.55;3.08;;;;;;;;;;5015021;28;20121;-65
2022/05/03 05:15:40;;;;;;;3.58;2.33;;;;;;;;;;5031674;28;20062;-66
2022/05/03 05:18:11;;;;;;;8.93;2.42;;;;;;;;;;4991856;28;20061;-65
2022/05/03 05:20:41;;;;;;;3.58;2.10;;;;;;;;;;4992038;28;20624;-66
2022/05/03 05:23:12;;;;;;;4.68;2.42;;;;;;;;;;4991712;28;20050;-66
2022/05/03 05:25:50;;;;;;;3.90;2.17;;;;;;;;;;4975808;28;20050;-65
2022/05/03 05:28:23;;;;;;;3.38;1.90;;;;;;;;;;5032984;28;20060;-66
2022/05/03 05:30:54;;;;;;;3.40;2.20;;;;;;;;;;5018101;28;20057;-67
2022/05/03 05:33:24;;;;;;;5.68;2.05;;;;;;;;;;5051176;28;20401;-66
2022/05/03 05:35:56;;;;;;;6.28;2.22;;;;;;;;;;5051096;28;20057;-66
2022/05/03 05:38:27;;;;;;;3.70;2.45;;;;;;;;;;5034836;28;20049;-65
2022/05/03 05:40:57;;;;;;;3.40;2.08;;;;;;;;;;4990772;28;20070;-66
2022/05/03 05:43:27;;;;;;;3.50;2.22;;;;;;;;;;4991873;28;20089;-66
2022/05/03 05:45:58;;;;;;;3.88;2.38;;;;;;;;;;4991705;28;20058;-66
2022/05/03 05:48:29;;;;;;;3.53;1.83;;;;;;;;;;4991575;28;20061;-66
2022/05/03 05:51:00;;;;;;;3.72;2.50;;;;;;;;;;4991335;28;20057;-66
2022/05/03 05:53:33;;;;;;;4.60;2.58;;;;;;;;;;4991230;28;20062;-66
2022/05/03 05:56:07;;;;;;;4.43;2.25;;;;;;;;;;5003333;28;20066;-66
2022/05/03 05:58:38;;;;;;;5.43;2.40;;;;;;;;;;4964328;28;20058;-65
2022/05/03 06:01:09;;;;;;;4.82;2.30;;;;;;;;;;5010042;28;20080;-65
2022/05/03 06:03:41;;;;;;;4.05;2.53;;;;;;;;;;5050569;28;20056;-66
2022/05/03 06:06:12;;;;;;;5.88;2.70;;;;;;;;;;5050503;28;20057;-66
2022/05/03 06:08:42;;;;;;;3.45;2.40;;;;;;;;;;5001111;28;20056;-66
2022/05/03 06:11:13;;;;;;;5.93;2.60;;;;;;;;;;5050593;28;20052;-65
2022/05/03 06:13:44;;;;;;;5.32;1.90;;;;;;;;;;5050493;28;20451;-66
2022/05/03 06:16:15;;;;;;;4.18;2.45;;;;;;;;;;5050096;28;20049;-66
2022/05/03 06:18:47;;;;;;;4.75;2.67;;;;;;;;;;5039004;28;20266;-66
2022/05/03 06:21:17;;;;;;;4.03;2.05;;;;;;;;;;5030432;28;20065;-71
2022/05/03 06:23:48;;;;;;;5.95;2.15;;;;;;;;;;5030304;28;20088;-68
2022/05/03 06:26:18;;;;;;;1.67;1.23;;;;;;;;;;5030415;28;20045;-69
2022/05/03 06:28:49;;;;;;;2.80;1.63;;;;;;;;;;5045546;28;20053;-68
2022/05/03 06:31:23;;;;;;;1.90;1.55;;;;;;;;;;5072402;28;20487;-66
2022/05/03 06:33:54;;;;;;;1.42;1.00;;;;;;;;;;5069587;28;20074;-66
2022/05/03 06:36:25;;;;;;;1.50;1.00;;;;;;;;;;5070097;28;20071;-66
2022/05/03 06:38:56;;;;;;;1.77;1.35;;;;;;;;;;5070072;28;20103;-65
2022/05/03 06:41:27;;;;;;;2.30;1.02;;;;;;;;;;5036581;28;20067;-67
2022/05/03 06:43:58;;;;;;;1.45;0.93;;;;;;;;;;5053660;28;20091;-67
2022/05/03 06:46:29;;;;;;;2.65;0.90;;;;;;;;;;4993492;28;20054;-67
2022/05/03 06:49:00;;;;;;;1.80;0.95;;;;;;;;;;5010162;28;20509;-69
2022/05/03 06:51:31;;;;;;;1.65;1.00;;;;;;;;;;5009747;28;20056;-66
2022/05/03 06:54:02;;;;;;;2.30;1.65;;;;;;;;;;5009868;28;20065;-66
2022/05/03 06:56:35;;;;;;;1.60;0.80;;;;;;;;;;4990187;28;20061;-66
2022/05/03 06:59:07;;;;;;;1.80;0.80;;;;;;;;;;4974099;28;20074;-66
2022/05/03 07:01:38;;;;;;;2.47;0.85;;;;;;;;;;4990285;28;20055;-69
2022/05/03 07:04:13;;;;;;;1.15;0.63;;;;;;;;;;4957764;28;20586;-67
2022/05/03 07:06:44;;;;;;;3.55;1.00;;;;;;;;;;4974352;28;20050;-71
2022/05/03 07:09:15;;;;;;;1.15;0.80;;;;;;;;;;4970537;28;20047;-71
2022/05/03 07:11:45;;;;;;;0.60;0.60;;;;;;;;;;4982384;28;20059;-69
2022/05/03 07:14:16;;;;;;;2.63;1.20;;;;;;;;;;4990281;28;20153;-69
2022/05/03 07:16:46;;;;;;;0.30;0.20;;;;;;;;;;4974526;28;20430;-70
2022/05/03 07:24:54;;;;;;;0.63;0.63;;;;;;;;;;4990270;28;20050;-72
2022/05/03 07:27:24;;;;;;;6.53;1.02;;;;;;;;;;4973691;28;20050;-70
2022/05/03 07:29:54;;;;;;;1.40;0.73;;;;;;;;;;4989930;28;20050;-67
2022/05/03 07:32:25;;;;;;;0.95;0.50;;;;;;;;;;4990034;28;20054;-69
2022/05/03 07:34:56;;;;;;;0.63;0.50;;;;;;;;;;4992971;28;20049;-68
2022/05/03 07:37:26;;;;;;;4.00;0.70;;;;;;;;;;5029314;28;20045;-71
2022/05/03 07:39:56;;;;;;;4.70;0.57;;;;;;;;;;4996801;28;20057;-71
2022/05/03 07:42:29;;;;;;;2.22;0.43;;;;;;;;;;5029356;28;20498;-72
2022/05/03 07:45:00;;;;;;;0.80;0.57;;;;;;;;;;5013333;28;20053;-70
2022/05/03 07:47:31;;;;;;;0.80;0.60;;;;;;;;;;5019207;28;20053;-69
2022/05/03 07:50:03;;;;;;;1.75;0.70;;;;;;;;;;5029295;28;20101;-68
2022/05/03 07:52:35;;;;;;;1.20;0.70;;;;;;;;;;5029299;28;20150;-68
2022/05/03 07:55:09;;;;;;;1.00;0.60;;;;;;;;;;4981314;28;20056;-67
2022/05/03 07:57:39;;;;;;;1.13;0.60;;;;;;;;;;5029041;28;20631;-67
2022/05/03 08:00:10;;;;;;;3.67;0.70;;;;;;;;;;5028984;28;20057;-66
2022/05/03 08:02:41;;;;;;;1.15;0.80;;;;;;;;;;4980420;28;20060;-66
2022/05/03 08:05:11;;;;;;;1.42;0.30;;;;;;;;;;5031079;28;20396;-66
2022/05/03 08:07:42;;;;;;;4.15;1.70;;;;;;;;;;5004136;28;20054;-66
2022/05/03 08:10:12;;;;;;;1.73;0.80;;;;;;;;;;5013057;28;20057;-66
2022/05/03 08:12:43;;;;;;;2.22;1.55;;;;;;;;;;4996940;28;20058;-66
2022/05/03 08:15:14;;;;;;;1.15;0.65;;;;;;;;;;5012925;28;20147;-66
2022/05/03 08:17:45;;;;;;;1.70;0.50;;;;;;;;;;5017222;28;20050;-66
2022/05/03 08:20:16;;;;;;;1.02;1.02;;;;;;;;;;5019157;28;20559;-66
2022/05/03 08:22:46;;;;;;;0.90;0.75;;;;;;;;;;4979898;28;20045;-67
2022/05/03 08:25:17;;;;;;;1.38;0.60;;;;;;;;;;5012623;28;20061;-68
2022/05/03 08:27:48;;;;;;;1.73;1.05;;;;;;;;;;5012716;28;20065;-69
2022/05/03 08:30:18;;;;;;;4.78;0.73;;;;;;;;;;5012982;28;20049;-71
2022/05/03 08:32:49;;;;;;;0.57;0.57;;;;;;;;;;5012467;28;20054;-71
2022/05/03 08:35:24;;;;;;;1.02;0.47;;;;;;;;;;5012662;28;20179;-68
2022/05/03 08:43:36;;;;;;;2.45;0.57;;;;;;;;;;4992461;28;20046;-70
2022/05/03 08:46:07;;;;;;;0.73;0.52;;;;;;;;;;4963275;28;20086;-69
2022/05/03 08:48:40;;;;;;;0.52;0.47;;;;;;;;;;5032142;28;20064;-70
2022/05/03 08:51:16;;;;;;;0.95;0.90;;;;;;;;;;5015895;28;20413;-71
2022/05/03 08:53:46;;;;;;;1.30;0.68;;;;;;;;;;5015871;28;20057;-72
2022/05/03 08:56:20;;;;;;;0.75;0.75;;;;;;;;;;4982752;28;20079;-70
2022/05/03 08:58:51;;;;;;;0.80;0.73;;;;;;;;;;4998983;28;20080;-69
2022/05/03 09:01:22;;;;;;;0.85;0.60;;;;;;;;;;5067382;28;20060;-71
2022/05/03 09:03:52;;;;;;;1.88;1.23;;;;;;;;;;5071748;28;20064;-72
2022/05/03 09:06:44;;;;;;;1.20;0.90;;;;;;;;;;5071550;28;20051;-71
2022/05/03 09:09:17;;;;;;;0.80;0.80;;;;;;;;;;5055045;28;20052;-71
2022/05/03 09:11:48;;;;;;;;;;;;;;;;;;5031854;28;20053;-71
2022/05/03 09:14:39;;;;;;;2.38;0.85;;;;;;;;;;5031420;28;19921;-68
2022/05/03 09:17:10;;;;;;;1.15;0.88;;;;;;;;;;5031419;28;20092;-69
2022/05/03 09:19:40;;;;;;;0.63;0.55;;;;;;;;;;5015612;28;20053;-69
2022/05/03 09:25:13;;;;;;;0.50;0.40;;;;;;;;;;5011319;28;20049;-68
2022/05/03 09:27:44;;;;;;;1.50;0.80;;;;;;;;;;5011597;28;20058;-68
2022/05/03 09:30:15;;;;;;;1.00;0.70;;;;;;;;;;4994901;28;20485;-68
2022/05/03 09:32:47;;;;;;;0.80;0.50;;;;;;;;;;4995092;28;20061;-67
2022/05/03 09:35:33;;;;;;;;;;;;;;;;;;5011810;28;20049;-67
2022/05/03 09:38:04;;;;;;;1.58;0.80;;;;;;;;;;5011464;28;19928;-67
2022/05/03 09:40:37;;;;;;;2.25;0.98;;;;;;;;;;5011267;28;20541;-68
2022/05/03 09:43:08;;;;;;;0.90;0.50;;;;;;;;;;5011214;28;20430;-68
2022/05/03 09:45:39;;;;;;;1.15;1.05;;;;;;;;;;5011292;28;20050;-69
2022/05/03 09:48:10;;;;;;;1.02;0.77;;;;;;;;;;5011248;28;20086;-69
2022/05/03 09:50:43;;;;;;;1.27;1.10;;;;;;;;;;5070535;28;20063;-68
2022/05/03 09:53:18;;;;;;;1.75;0.68;;;;;;;;;;5070848;28;20538;-68
2022/05/03 09:55:49;;;;;;;1.38;0.60;;;;;;;;;;5070610;28;20053;-68
2022/05/03 09:58:20;;;;;;;1.02;0.75;;;;;;;;;;5070749;28;20052;-68
2022/05/03 10:00:51;;;;;;;1.58;0.93;;;;;;;;;;5070617;28;20511;-71
2022/05/03 10:03:22;;;;;;;0.73;0.70;;;;;;;;;;5052744;28;20059;-70
2022/05/03 10:05:52;;;;;;;2.88;2.13;;;;;;;;;;5058568;28;20063;-70
2022/05/03 10:08:24;;;;;;;1.50;0.90;;;;;;;;;;5093011;28;20044;-72
2022/05/03 10:10:57;;;;;;;2.65;0.80;;;;;;;;;;5057334;28;20052;-70
2022/05/03 10:13:28;;;;;;;1.98;1.23;;;;;;;;;;5050177;28;20060;-68
2022/05/03 10:21:43;;;;;;;1.60;0.70;;;;;;;;;;5017299;28;20065;-67
2022/05/03 10:24:14;;;;;;;4.05;2.35;;;;;;;;;;5049978;28;20049;-67
2022/05/03 10:27:01;;;;;;;2.97;1.60;;;;;;;;;;5050325;28;20485;-67
2022/05/03 10:29:37;;;;;;;3.10;1.30;;;;;;;;;;5050008;28;20045;-66
2022/05/03 10:32:09;;;;;;;1.42;0.80;;;;;;;;;;5050140;28;20057;-66
2022/05/03 10:34:45;;;;;;;2.03;1.40;;;;;;;;;;4997283;28;20532;-66
2022/05/03 10:37:38;;;;;;;4.38;3.22;;;;;;;;;;5030084;28;20056;-66
2022/05/03 10:40:14;;;;;;;3.47;2.22;;;;;;;;;;4952235;28;20059;-66
2022/05/03 10:43:04;;;;;;;1.67;1.00;;;;;;;;;;4935661;29;20051;-66
2022/05/03 10:45:54;;;;;;;2.85;1.48;;;;;;;;;;4951743;29;20059;-66
2022/05/03 10:48:33;;;;;;;2.50;1.83;;;;;;;;;;4932800;29;20059;-66
2022/05/03 10:51:08;;;;;;;4.20;1.50;;;;;;;;;;4932701;29;20056;-65
2022/05/03 10:53:41;;;;;;;2.83;1.67;;;;;;;;;;4932779;29;20063;-66
2022/05/03 10:56:17;;;;;;;2.00;1.30;;;;;;;;;;4916323;29;20052;-69
2022/05/03 10:59:10;;;;;;;3.65;1.10;;;;;;;;;;4916540;29;20521;-69
2022/05/03 11:01:56;;;;;;;1.42;1.33;;;;;;;;;;4913465;29;20063;-68
2022/05/03 11:04:27;;;;;;;2.63;1.20;;;;;;;;;;4913396;29;20052;-68
2022/05/03 11:06:57;;;;;;;2.85;1.15;;;;;;;;;;4913520;29;20063;-69
2022/05/03 11:09:30;;;;;;;4.15;2.30;;;;;;;;;;4878712;29;20048;-69
2022/05/03 11:12:04;;;;;;;3.28;1.60;;;;;;;;;;4877531;29;20423;-68
2022/05/03 11:14:45;;;;;;;1.98;1.52;;;;;;;;;;4932461;29;20139;-69
2022/05/03 11:17:16;;;;;;;1.52;1.00;;;;;;;;;;4947868;28;20054;-69
2022/05/03 11:19:53;;;;;;;2.55;1.48;;;;;;;;;;4998014;28;20054;-70
2022/05/03 11:22:27;;;;;;;1.25;0.45;;;;;;;;;;4986251;28;20375;-73
2022/05/03 11:25:08;;;;;;;2.92;1.17;;;;;;;;;;4955623;28;20071;-72
2022/05/03 11:27:38;;;;;;;2.25;1.30;;;;;;;;;;4932089;29;20051;-71
2022/05/03 11:30:16;;;;;;;2.20;1.30;;;;;;;;;;4932504;29;20059;-70
2022/05/03 11:32:46;;;;;;;2.17;1.45;;;;;;;;;;4932352;29;20051;-70
2022/05/03 11:35:22;;;;;;;4.05;1.52;;;;;;;;;;4916583;29;20056;-70
2022/05/03 11:37:55;;;;;;;3.42;1.05;;;;;;;;;;4932175;29;20095;-70
2022/05/03 11:40:27;;;;;;;1.50;1.02;;;;;;;;;;4971080;28;20054;-69
2022/05/03 11:42:57;;;;;;;1.50;0.90;;;;;;;;;;4974431;28;20061;-68
2022/05/03 11:45:28;;;;;;;2.67;1.30;;;;;;;;;;4974248;28;20502;-69
2022/05/03 11:47:59;;;;;;;3.50;2.28;;;;;;;;;;5024743;28;20053;-68
2022/05/03 11:56:11;;;;;;;5.22;3.72;;;;;;;;;;5032983;28;20052;-68
2022/05/03 11:58:42;;;;;;;3.83;2.50;;;;;;;;;;5032716;28;20061;-72
2022/05/03 12:01:14;;;;;;;3.13;1.90;;;;;;;;;;5019243;28;20448;-72
2022/05/03 12:03:58;;;;;;;3.45;2.30;;;;;;;;;;5052683;28;20045;-69
2022/05/03 12:06:43;;;;;;;5.95;3.75;;;;;;;;;;5060959;28;20512;-68
2022/05/03 12:09:20;;;;;;;3.58;2.03;;;;;;;;;;5052193;28;20060;-70
2022/05/03 12:14:45;;;;;;;3.20;2.28;;;;;;;;;;5052166;28;20064;-73
2022/05/03 12:17:17;;;;;;;3.28;2.17;;;;;;;;;;5052473;28;20045;-68
2022/05/03 12:20:00;;;;;;;1.05;0.85;;;;;;;;;;5035258;28;20056;-69
2022/05/03 12:22:30;;;;;;;3.65;2.55;;;;;;;;;;5052349;28;20041;-70
2022/05/03 12:25:01;;;;;;;2.83;1.60;;;;;;;;;;4995892;28;20058;-69
2022/05/03 12:27:31;;;;;;;2.78;1.70;;;;;;;;;;5012322;28;20065;-69
2022/05/03 12:30:11;;;;;;;3.15;2.15;;;;;;;;;;5012362;28;20105;-68
2022/05/03 12:32:42;;;;;;;6.30;4.28;;;;;;;;;;5012504;28;20050;-68
2022/05/03 12:35:14;;;;;;;6.00;3.63;;;;;;;;;;5012381;28;20065;-69
2022/05/03 12:37:52;;;;;;;3.70;2.30;;;;;;;;;;5011898;28;20065;-68
2022/05/03 12:40:25;;;;;;;6.15;4.47;;;;;;;;;;5011992;28;20050;-68
2022/05/03 12:43:09;;;;;;;7.20;4.85;;;;;;;;;;5008460;28;20050;-68
2022/05/03 12:45:40;;;;;;;8.68;5.97;;;;;;;;;;5015636;28;20056;-67
2022/05/03 12:48:11;;;;;;;5.18;2.58;;;;;;;;;;4999766;28;20057;-67
2022/05/03 12:50:41;;;;;;;8.35;3.80;;;;;;;;;;5031325;28;20057;-67
2022/05/03 12:53:14;;;;;;;28.70;17.48;;;;;;;;;;5031813;28;20049;-71
2022/05/03 12:55:44;;;;;;;12.68;8.02;;;;;;;;;;5011209;28;20060;-68
2022/05/03 12:58:24;;;;;;;12.25;6.88;;;;;;;;;;5011773;28;20065;-68
2022/05/03 13:00:59;;;;;;;7.80;5.32;;;;;;;;;;5011537;28;20062;-68
2022/05/03 13:03:29;;;;;;;4.32;2.33;;;;;;;;;;4962885;28;20050;-68
2022/05/03 13:05:59;;;;;;;9.18;3.38;;;;;;;;;;4991791;28;20050;-69
2022/05/03 13:08:30;;;;;;;8.10;3.80;;;;;;;;;;4992084;28;20058;-68
2022/05/03 13:11:00;;;;;;;8.00;3.28;;;;;;;;;;4991963;28;20379;-69
2022/05/03 13:13:31;;;;;;;7.85;5.10;;;;;;;;;;4991971;28;20058;-68
2022/05/03 13:16:01;;;;;;;8.45;4.72;;;;;;;;;;4978858;28;20068;-68
2022/05/03 13:18:32;;;;;;;6.43;3.45;;;;;;;;;;5011672;28;20058;-69
2022/05/03 13:21:03;;;;;;;3.97;2.28;;;;;;;;;;5018887;28;20048;-70
2022/05/03 13:23:33;;;;;;;3.70;1.98;;;;;;;;;;5031296;28;20058;-68
2022/05/03 13:26:03;;;;;;;3.30;1.95;;;;;;;;;;5031023;28;20049;-69
2022/05/03 13:28:34;;;;;;;1.88;0.80;;;;;;;;;;5014703;28;20549;-68
2022/05/03 13:31:04;;;;;;;1.17;0.88;;;;;;;;;;5030961;28;20060;-68
2022/05/03 13:33:35;;;;;;;1.00;0.82;;;;;;;;;;5042820;28;20061;-68
2022/05/03 13:41:58;;;;;;;11.80;4.10;;;;;;;;;;5011131;28;20062;-68
2022/05/03 13:44:29;;;;;;;7.50;4.30;;;;;;;;;;4979183;28;20045;-69
2022/05/03 13:47:00;;;;;;;6.40;3.63;;;;;;;;;;5011331;28;20509;-68
2022/05/03 13:49:31;;;;;;;11.70;5.22;;;;;;;;;;5010942;28;20425;-69
2022/05/03 13:52:02;;;;;;;10.45;5.78;;;;;;;;;;4994499;28;20072;-69
2022/05/03 13:54:35;;;;;;;5.45;3.05;;;;;;;;;;5010790;28;20053;-68
2022/05/03 13:57:06;;;;;;;10.57;7.40;;;;;;;;;;4990806;28;20046;-69
2022/05/03 13:59:36;;;;;;;16.50;8.93;;;;;;;;;;4975468;28;20579;-67
2022/05/03 14:02:08;;;;;;;12.27;7.80;;;;;;;;;;5010521;28;20544;-68
2022/05/03 14:04:39;;;;;;;12.63;5.72;;;;;;;;;;5010586;28;20678;-70
2022/05/03 14:07:10;;;;;;;18.48;6.22;;;;;;;;;;5023974;28;20064;-71
2022/05/03 14:09:40;;;;;;;20.30;8.32;;;;;;;;;;5014127;28;20539;-70
2022/05/03 14:12:11;;;;;;;2.47;1.60;;;;;;;;;;4981401;28;20072;-71
2022/05/03 14:14:42;;;;;;;2.08;1.30;;;;;;;;;;5010357;28;20058;-71
2022/05/03 14:17:13;;;;;;;5.15;1.85;;;;;;;;;;5017298;28;20529;-73
2022/05/03 14:19:44;;;;;;;11.38;9.10;;;;;;;;;;4981175;28;20068;-71
2022/05/03 14:22:15;;;;;;;5.38;2.40;;;;;;;;;;5030139;28;20520;-71
2022/05/03 14:24:46;;;;;;;8.10;3.72;;;;;;;;;;4994083;28;20390;-69
2022/05/03 14:27:17;;;;;;;8.35;4.72;;;;;;;;;;4961754;28;20058;-68
2022/05/03 14:29:47;;;;;;;32.63;15.90;;;;;;;;;;4994129;28;20394;-69
2022/05/03 14:32:18;;;;;;;29.58;16.65;;;;;;;;;;4994534;28;20062;-67
2022/05/03 14:34:49;;;;;;;8.43;4.40;;;;;;;;;;5010145;28;20054;-67
2022/05/03 14:37:19;;;;;;;4.88;2.97;;;;;;;;;;5010513;28;20073;-66
2022/05/03 14:39:49;;;;;;;4.13;2.13;;;;;;;;;;4990379;28;20049;-66
2022/05/03 14:42:20;;;;;;;2.45;1.45;;;;;;;;;;4990665;28;20061;-66
2022/05/03 14:44:51;;;;;;;3.58;1.77;;;;;;;;;;4990289;28;20058;-64
2022/05/03 14:47:22;;;;;;;3.20;1.35;;;;;;;;;;4919429;29;20122;-65
2022/05/03 14:49:52;;;;;;;2.35;0.80;;;;;;;;;;4932272;29;20539;-64
2022/05/03 14:52:23;;;;;;;5.05;2.58;;;;;;;;;;4948133;29;20060;-65
2022/05/03 14:54:53;;;;;;;2.95;1.85;;;;;;;;;;4885166;29;20067;-66
2022/05/03 15:03:03;;;;;;;2.50;1.00;;;;;;;;;;4961960;28;20051;-66
2022/05/03 15:05:35;;;;;;;2.42;1.23;;;;;;;;;;4954895;28;20070;-66
2022/05/03 15:08:10;;;;;;;2.28;1.25;;;;;;;;;;4970804;28;20059;-65
2022/05/03 15:10:41;;;;;;;2.28;1.52;;;;;;;;;;4938490;28;20055;-65
2022/05/03 15:13:12;;;;;;;3.90;2.67;;;;;;;;;;4916560;29;20535;-64
2022/05/03 15:15:43;;;;;;;4.68;2.78;;;;;;;;;;4935978;29;20186;-65
2022/05/03 15:18:13;;;;;;;5.38;3.97;;;;;;;;;;4951602;29;20055;-67
2022/05/03 15:20:47;;;;;;;3.97;2.03;;;;;;;;;;4955237;29;20062;-66
2022/05/03 15:26:05;;;;;;;2.65;1.80;;;;;;;;;;4972387;28;20066;-68
2022/05/03 15:28:35;;;;;;;3.60;2.08;;;;;;;;;;4944521;28;20069;-68
2022/05/03 15:31:07;;;;;;;2.25;1.40;;;;;;;;;;4993807;28;20461;-67
2022/05/03 15:33:38;;;;;;;1.83;1.42;;;;;;;;;;4993923;28;20442;-67
2022/05/03 15:36:08;;;;;;;5.40;4.20;;;;;;;;;;4955188;29;20063;-66
2022/05/03 15:38:39;;;;;;;2.92;2.42;;;;;;;;;;4954845;29;20098;-66
2022/05/03 15:41:09;;;;;;;3.33;1.67;;;;;;;;;;4954918;29;20419;-67
2022/05/03 15:43:40;;;;;;;4.32;2.90;;;;;;;;;;4935630;29;20051;-66
2022/05/03 15:46:10;;;;;;;2.38;1.48;;;;;;;;;;4935807;29;20063;-67
2022/05/03 15:48:41;;;;;;;4.25;2.58;;;;;;;;;;4935673;29;20051;-67
2022/05/03 15:51:12;;;;;;;5.22;2.65;;;;;;;;;;4960729;28;20059;-66
2022/05/03 15:53:44;;;;;;;3.47;2.20;;;;;;;;;;4925938;28;20043;-66
2022/05/03 15:56:14;;;;;;;;;;;;;;;;;;4974460;28;20063;-67
2022/05/03 15:58:44;;;;;;;9.07;5.22;;;;;;;;;;4973819;28;20380;-66
2022/05/03 16:01:15;;;;;;;6.60;4.30;;;;;;;;;;4971694;28;20058;-67
2022/05/03 16:03:48;;;;;;;4.55;2.60;;;;;;;;;;4976177;28;20058;-66
2022/05/03 16:06:18;;;;;;;3.83;2.10;;;;;;;;;;4993069;28;20054;-67
2022/05/03 16:08:48;;;;;;;3.10;2.05;;;;;;;;;;4960365;28;20054;-66
2022/05/03 16:11:19;;;;;;;10.90;6.88;;;;;;;;;;4993114;28;20069;-68
2022/05/03 16:13:50;;;;;;;7.60;4.68;;;;;;;;;;5003722;28;20057;-69
2022/05/03 16:16:20;;;;;;;4.38;2.67;;;;;;;;;;5010030;28;20058;-69
2022/05/03 16:18:51;;;;;;;4.15;1.92;;;;;;;;;;4969010;28;20047;-67
2022/05/03 16:21:21;;;;;;;6.97;4.22;;;;;;;;;;4963999;28;20082;-67